Time;durP1;ratioP1;P1;durP2;ratioP2;P2;SDS_P1;SDS_P2;PMS_P1;PMS_P2;Temp;Humidity;BMP_temperature;BMP_pressure;BME280_temperature;BME280_humidity;BME280_pressure;Samples;Min_cycle;Max_cycle;Signal;HPM_P1;HPM_P2
2020/12/26 00:00:10;;;;;;;7.65;2.97;;;;;;;26.46;30.64;97207.84;5039033;28;20021;-42
2020/12/26 00:02:35;;;;;;;5.07;2.75;;;;;;;26.46;30.68;97205.22;5024409;28;20186;-43
2020/12/26 00:05:01;;;;;;;6.45;2.55;;;;;;;26.44;30.69;97212.34;5021381;28;20045;-43
2020/12/26 00:07:26;;;;;;;4.68;2.80;;;;;;;26.45;30.58;97203.53;5025667;28;20041;-41
2020/12/26 00:09:52;;;;;;;8.93;2.67;;;;;;;26.43;30.75;97210.66;5027397;28;20507;-41
2020/12/26 00:12:18;;;;;;;5.15;2.85;;;;;;;26.45;30.66;97203.53;5019694;28;20503;-41
2020/12/26 00:14:44;;;;;;;7.18;2.78;;;;;;;26.45;30.58;97204.38;5018565;28;20114;-43
2020/12/26 00:17:10;;;;;;;4.78;2.80;;;;;;;26.45;30.65;97198.28;5037557;28;20037;-41
2020/12/26 00:19:35;;;;;;;4.10;2.50;;;;;;;26.46;30.55;97194.72;5043332;28;20033;-42
2020/12/26 00:22:02;;;;;;;3.85;2.25;;;;;;;26.45;30.64;97193.88;5041525;28;20036;-43
2020/12/26 00:24:27;;;;;;;6.13;2.63;;;;;;;26.41;30.58;97189.69;5045166;28;20037;-42
2020/12/26 00:26:55;;;;;;;5.18;2.72;;;;;;;26.45;30.51;97195.63;5042009;28;20033;-41
2020/12/26 00:29:21;;;;;;;5.53;2.70;;;;;;;26.45;30.69;97200.91;5037823;28;20047;-44
2020/12/26 00:31:47;;;;;;;3.92;2.35;;;;;;;26.46;30.67;97199.97;5039325;28;20665;-44
2020/12/26 00:34:13;;;;;;;4.40;2.70;;;;;;;26.46;30.56;97206.09;5042390;28;20419;-42
2020/12/26 00:36:39;;;;;;;3.85;2.47;;;;;;;26.47;30.54;97209.56;5043337;28;20067;-42
2020/12/26 00:39:04;;;;;;;3.92;2.42;;;;;;;26.47;30.60;97209.56;5030487;28;20519;-39
2020/12/26 00:41:30;;;;;;;4.93;2.33;;;;;;;26.48;30.62;97213.91;5041668;28;20055;-46
2020/12/26 00:43:56;;;;;;;5.10;2.83;;;;;;;26.48;30.47;97213.91;5039599;28;20496;-43
2020/12/26 00:46:24;;;;;;;5.25;2.55;;;;;;;26.46;30.50;97207.84;5028079;28;20095;-42
2020/12/26 00:48:50;;;;;;;4.40;2.03;;;;;;;26.49;30.58;97215.59;5021789;28;20067;-42
2020/12/26 00:51:15;;;;;;;5.40;2.72;;;;;;;26.48;30.55;97213.91;5022683;28;20589;-42
2020/12/26 00:53:40;;;;;;;10.35;3.50;;;;;;;26.48;29.49;97221.78;5024491;28;20107;-41
2020/12/26 00:56:06;;;;;;;6.93;2.85;;;;;;;26.42;29.46;97224.69;5020614;28;20048;-43
2020/12/26 00:58:32;;;;;;;6.65;2.55;;;;;;;26.39;30.24;97219.59;5016075;28;20049;-41
2020/12/26 01:00:57;;;;;;;7.57;2.70;;;;;;;26.37;30.46;97216.19;5018301;28;20037;-43
2020/12/26 01:03:23;;;;;;;8.30;2.53;;;;;;;26.38;30.42;97217.91;5036246;28;20134;-40
2020/12/26 01:05:48;;;;;;;4.03;2.40;;;;;;;26.37;30.46;97217.03;5035558;28;20475;-44
2020/12/26 01:08:14;;;;;;;4.57;2.22;;;;;;;26.38;30.42;97217.91;5040428;28;20047;-43
2020/12/26 01:10:39;;;;;;;4.15;2.10;;;;;;;26.39;30.47;97219.59;5041819;28;20078;-39
2020/12/26 01:13:05;;;;;;;5.85;2.28;;;;;;;26.39;30.59;97224.88;5043555;28;20728;-44
2020/12/26 01:15:30;;;;;;;6.00;2.53;;;;;;;26.40;30.46;97221.31;5040627;28;20038;-43
2020/12/26 01:17:55;;;;;;;4.45;2.33;;;;;;;26.40;30.64;97223.94;5018883;28;20053;-44
2020/12/26 01:20:21;;;;;;;6.13;2.33;;;;;;;26.41;30.45;97228.25;5014022;28;20532;-43
2020/12/26 01:22:46;;;;;;;3.70;2.10;;;;;;;26.40;30.61;97231.81;5025208;28;20116;-42
2020/12/26 01:25:12;;;;;;;6.35;2.47;;;;;;;26.38;30.55;97231.06;5024264;28;20053;-43
2020/12/26 01:27:38;;;;;;;2.75;2.00;;;;;;;26.39;30.66;97238.00;5018247;28;20055;-39
2020/12/26 01:30:04;;;;;;;4.22;2.13;;;;;;;26.38;30.59;97233.69;5021966;28;20041;-42
2020/12/26 01:32:31;;;;;;;6.10;2.10;;;;;;;26.40;30.42;97242.31;5016874;28;20678;-43
2020/12/26 01:34:57;;;;;;;5.72;2.55;;;;;;;26.38;30.51;97239.75;5020109;28;20554;-41
2020/12/26 01:37:23;;;;;;;5.25;1.90;;;;;;;26.38;30.50;97245.03;5013077;28;20824;-42
2020/12/26 01:39:49;;;;;;;4.43;2.08;;;;;;;26.37;30.70;97253.84;5020135;28;20480;-41
2020/12/26 01:42:14;;;;;;;4.88;2.15;;;;;;;26.37;30.50;97242.47;5022255;28;20072;-41
2020/12/26 01:44:41;;;;;;;4.20;2.10;;;;;;;26.36;30.51;97252.13;5021839;28;20037;-42
2020/12/26 01:47:06;;;;;;;3.00;2.13;;;;;;;26.37;30.58;97258.22;5033480;28;20722;-43
2020/12/26 01:49:32;;;;;;;4.30;2.22;;;;;;;26.35;30.60;97269.66;5039835;28;20044;-43
2020/12/26 01:51:57;;;;;;;4.97;2.20;;;;;;;26.35;30.56;97266.19;5050489;28;20040;-41
2020/12/26 01:54:23;;;;;;;4.28;2.13;;;;;;;26.37;30.66;97263.47;5024168;28;20056;-40
2020/12/26 01:56:48;;;;;;;6.05;2.10;;;;;;;26.36;30.64;97267.91;5034870;28;20037;-43
2020/12/26 01:59:14;;;;;;;3.47;1.98;;;;;;;26.33;30.59;97265.41;5043262;28;20045;-46
2020/12/26 02:01:41;;;;;;;3.53;1.90;;;;;;;26.37;30.55;97280.09;5024984;28;20041;-43
2020/12/26 02:04:08;;;;;;;2.25;1.63;;;;;;;26.36;30.59;97281.03;5018557;28;20086;-45
2020/12/26 02:06:37;;;;;;;4.05;1.92;;;;;;;26.37;30.60;97284.50;5019245;28;20040;-43
2020/12/26 02:09:04;;;;;;;2.67;1.52;;;;;;;26.37;30.50;97277.47;5022777;28;20045;-40
2020/12/26 02:11:29;;;;;;;5.30;1.95;;;;;;;26.36;30.57;97286.28;5018878;28;20044;-41
2020/12/26 02:13:56;;;;;;;3.55;1.95;;;;;;;26.36;30.47;97291.56;5020149;28;20123;-42
2020/12/26 02:16:21;;;;;;;2.20;1.77;;;;;;;26.34;30.59;97286.38;5038822;28;20702;-43
2020/12/26 02:18:47;;;;;;;2.78;1.70;;;;;;;26.34;30.59;97291.63;5015839;28;20071;-45
2020/12/26 02:21:12;;;;;;;5.35;2.17;;;;;;;26.31;30.58;97291.75;5014328;28;20052;-43
2020/12/26 02:23:45;;;;;;;4.40;1.83;;;;;;;26.30;30.51;97281.31;5031631;28;20048;-42
2020/12/26 02:26:11;;;;;;;2.95;1.90;;;;;;;26.30;30.62;97283.94;5023127;28;20063;-42
2020/12/26 02:28:37;;;;;;;3.40;1.70;;;;;;;26.28;30.64;97281.38;5014751;28;20707;-41
2020/12/26 02:31:03;;;;;;;2.13;1.48;;;;;;;26.31;30.61;97285.66;5025317;28;20049;-43
2020/12/26 02:33:28;;;;;;;4.55;1.77;;;;;;;26.29;30.74;97288.38;5041130;28;20037;-42
2020/12/26 02:35:54;;;;;;;3.58;1.90;;;;;;;26.28;30.67;97293.69;5042618;28;20156;-44
2020/12/26 02:38:20;;;;;;;4.35;2.00;;;;;;;26.28;30.64;97289.25;5040701;28;20049;-41
2020/12/26 02:40:47;;;;;;;2.70;1.67;;;;;;;26.28;30.61;97291.88;5046936;28;20116;-45
2020/12/26 02:43:24;;;;;;;2.78;1.75;;;;;;;26.27;30.51;97284.94;5046530;28;20041;-42
2020/12/26 02:45:50;;;;;;;3.08;1.75;;;;;;;26.28;30.54;97286.63;5040429;28;20037;-42
2020/12/26 02:48:16;;;;;;;2.67;1.67;;;;;;;26.27;30.77;97290.19;5042357;28;20621;-41
2020/12/26 02:50:41;;;;;;;2.70;1.73;;;;;;;26.27;30.56;97295.44;5049178;28;20048;-46
2020/12/26 02:53:07;;;;;;;2.83;1.80;;;;;;;26.26;30.62;97288.50;5044184;28;20052;-45
2020/12/26 02:55:33;;;;;;;3.72;1.73;;;;;;;26.27;30.62;97300.69;5039030;28;20040;-44
2020/12/26 02:57:59;;;;;;;2.30;1.48;;;;;;;26.27;30.74;97305.13;5042170;28;20511;-42
2020/12/26 03:00:25;;;;;;;2.42;1.65;;;;;;;26.26;30.70;97304.25;5039568;28;20445;-43
2020/12/26 03:02:51;;;;;;;2.35;1.55;;;;;;;26.25;30.76;97297.28;5037884;28;20068;-44
2020/12/26 03:05:17;;;;;;;2.88;1.52;;;;;;;26.24;30.72;97287.72;5044217;28;20055;-42
2020/12/26 03:07:43;;;;;;;2.58;1.50;;;;;;;26.21;30.74;97285.22;5045888;28;20061;-44
2020/12/26 03:10:09;;;;;;;2.50;1.33;;;;;;;26.23;30.83;97288.59;5036287;28;20115;-43
2020/12/26 03:12:35;;;;;;;2.80;1.83;;;;;;;26.22;30.77;97294.78;5031776;28;20106;-44
2020/12/26 03:15:00;;;;;;;2.30;1.40;;;;;;;26.22;30.75;97298.28;5049227;28;20129;-42
2020/12/26 03:17:26;;;;;;;2.15;1.33;;;;;;;26.21;30.64;97290.47;5028793;28;20051;-45
2020/12/26 03:19:51;;;;;;;1.92;1.48;;;;;;;26.21;30.59;97293.09;5035294;28;20033;-44
2020/12/26 03:22:17;;;;;;;2.58;1.48;;;;;;;26.19;30.78;97298.41;5038793;28;20040;-43
2020/12/26 03:24:42;;;;;;;4.15;1.70;;;;;;;26.19;30.79;97297.56;5027070;28;20139;-44
2020/12/26 03:27:08;;;;;;;1.70;1.38;;;;;;;26.18;30.65;97301.09;5019949;28;20042;-42
2020/12/26 03:29:35;;;;;;;2.55;1.50;;;;;;;26.17;30.82;97299.41;5025840;28;20048;-44
2020/12/26 03:32:00;;;;;;;1.77;1.38;;;;;;;26.17;30.62;97302.91;5025515;28;20500;-44
2020/12/26 03:34:26;;;;;;;2.20;1.30;;;;;;;26.17;30.65;97308.16;5027127;28;20046;-43
2020/12/26 03:36:52;;;;;;;2.40;1.60;;;;;;;26.16;30.80;97308.22;5018948;28;20045;-41
2020/12/26 03:39:18;;;;;;;2.65;1.48;;;;;;;26.15;30.64;97309.13;5021612;28;20044;-44
2020/12/26 03:41:43;;;;;;;1.40;1.20;;;;;;;26.17;30.95;97309.91;5024229;28;20045;-41
2020/12/26 03:44:09;;;;;;;1.73;1.20;;;;;;;26.16;30.62;97309.06;5019448;28;20508;-41
2020/12/26 03:46:35;;;;;;;1.73;1.20;;;;;;;26.16;30.86;97318.72;5035786;28;20407;-44
2020/12/26 03:49:00;;;;;;;2.92;1.50;;;;;;;26.15;30.78;97314.38;5045189;28;20036;-43
2020/12/26 03:51:26;;;;;;;1.95;1.33;;;;;;;26.14;30.80;97316.16;5034512;28;20034;-42
2020/12/26 03:53:52;;;;;;;1.65;1.13;;;;;;;26.16;30.65;97318.72;5034919;28;20300;-43
2020/12/26 03:56:17;;;;;;;2.15;1.40;;;;;;;26.17;30.75;97315.19;5044166;28;20098;-44
2020/12/26 03:58:43;;;;;;;2.55;1.70;;;;;;;26.16;30.76;97321.34;5040423;28;20170;-45
2020/12/26 04:01:09;;;;;;;2.47;1.27;;;;;;;26.16;30.67;97316.09;5036799;28;20041;-41
2020/12/26 04:03:35;;;;;;;2.28;1.42;;;;;;;26.16;30.72;97318.72;5042102;28;20040;-43
2020/12/26 04:06:01;;;;;;;1.98;1.40;;;;;;;26.16;30.74;97318.72;5035842;28;20045;-43
2020/12/26 04:08:27;;;;;;;1.83;1.40;;;;;;;26.15;30.58;97323.13;5043334;28;20048;-43
2020/12/26 04:10:52;;;;;;;2.13;1.27;;;;;;;26.15;30.78;97322.25;5041502;28;20059;-42
2020/12/26 04:13:18;;;;;;;1.23;1.08;;;;;;;26.14;30.66;97317.94;5034423;28;20055;-43
2020/12/26 04:15:44;;;;;;;1.58;1.15;;;;;;;26.14;30.66;97328.44;5040386;28;20041;-42
2020/12/26 04:18:10;;;;;;;2.78;1.13;;;;;;;26.14;30.65;97323.19;5039097;28;20530;-40
2020/12/26 04:20:36;;;;;;;1.63;1.20;;;;;;;26.12;30.79;97325.88;5034764;28;20098;-43
2020/12/26 04:23:01;;;;;;;1.33;1.10;;;;;;;26.12;30.71;97314.53;5043227;28;20033;-44
2020/12/26 04:25:27;;;;;;;2.92;1.25;;;;;;;26.12;30.61;97322.41;5041652;28;20045;-42
2020/12/26 04:27:53;;;;;;;3.90;1.27;;;;;;;26.10;30.76;97325.94;5039540;28;20045;-44
2020/12/26 04:30:19;;;;;;;1.52;1.27;;;;;;;26.12;30.62;97327.66;5043245;28;20029;-45
2020/12/26 04:32:44;;;;;;;1.20;1.10;;;;;;;26.12;30.85;97328.50;5028910;28;20099;-44
2020/12/26 04:35:10;;;;;;;1.90;1.20;;;;;;;26.10;30.69;97319.84;5018684;28;20041;-43
2020/12/26 04:37:36;;;;;;;1.63;1.20;;;;;;;26.12;30.84;97327.66;5022692;28;20095;-43
2020/12/26 04:40:01;;;;;;;1.88;1.20;;;;;;;26.09;30.60;97329.50;5021592;28;20049;-43
2020/12/26 04:42:27;;;;;;;2.53;1.35;;;;;;;26.09;30.77;97324.25;5017997;28;20037;-41
2020/12/26 04:44:53;;;;;;;2.55;1.20;;;;;;;26.10;30.75;97327.75;5021309;28;20029;-44
2020/12/26 04:47:28;;;;;;;2.30;1.05;;;;;;;26.10;30.70;97335.63;5025794;28;20036;-43
2020/12/26 04:49:53;;;;;;;2.67;1.13;;;;;;;26.08;30.69;97333.06;5018226;28;20091;-42
2020/12/26 04:52:19;;;;;;;1.60;1.20;;;;;;;26.06;30.61;97329.66;5006429;28;20033;-41
2020/12/26 04:54:44;;;;;;;2.10;1.27;;;;;;;26.07;30.84;97331.38;5042162;28;20038;-46
2020/12/26 04:57:10;;;;;;;1.42;1.20;;;;;;;26.06;30.56;97329.66;5017499;28;20045;-44
2020/12/26 04:59:36;;;;;;;1.60;1.30;;;;;;;26.08;30.72;97338.31;5019199;28;20042;-43
2020/12/26 05:02:01;;;;;;;1.55;1.10;;;;;;;26.09;30.76;97344.44;5017539;28;20548;-41
2020/12/26 05:04:27;;;;;;;2.75;1.00;;;;;;;26.08;30.67;97348.81;5016429;28;20049;-41
2020/12/26 05:06:53;;;;;;;1.73;1.15;;;;;;;26.07;30.76;97352.38;5019751;28;20045;-44
2020/12/26 05:09:19;;;;;;;1.67;1.15;;;;;;;26.06;30.83;97350.69;5017456;28;20120;-45
2020/12/26 05:11:49;;;;;;;1.52;1.13;;;;;;;26.04;30.82;97349.88;5014140;28;20459;-43
2020/12/26 05:14:18;;;;;;;1.67;1.20;;;;;;;26.05;30.85;97356.81;5020151;28;20060;-44
2020/12/26 05:16:43;;;;;;;1.95;1.20;;;;;;;26.06;30.67;97349.81;5013907;28;20141;-43
2020/12/26 05:19:10;;;;;;;1.42;0.95;;;;;;;26.03;30.69;97356.06;5019181;28;20049;-42
2020/12/26 05:21:35;;;;;;;1.98;1.38;;;;;;;26.03;30.93;97348.19;5026685;28;20407;-41
2020/12/26 05:24:05;;;;;;;2.22;0.93;;;;;;;26.03;30.71;97342.94;5025697;28;20043;-41
2020/12/26 05:26:37;;;;;;;1.45;0.68;;;;;;;26.04;30.85;97342.00;5022423;28;20528;-41
2020/12/26 05:29:02;;;;;;;2.30;1.00;;;;;;;26.04;30.77;97344.63;5020599;28;20128;-44
2020/12/26 05:31:55;;;;;;;2.22;0.82;;;;;;;26.03;30.78;97350.81;5030825;28;20804;-44
2020/12/26 05:34:21;;;;;;;1.00;0.90;;;;;;;26.03;30.81;97350.81;5039636;28;20324;-40
2020/12/26 05:36:47;;;;;;;1.42;0.95;;;;;;;26.03;30.70;97345.56;5042572;28;20474;-43
2020/12/26 05:39:13;;;;;;;1.63;1.02;;;;;;;26.03;30.72;97344.69;5043397;28;20045;-42
2020/12/26 05:41:41;;;;;;;1.73;1.00;;;;;;;26.03;30.82;97349.94;5040494;28;20064;-43
2020/12/26 05:44:07;;;;;;;1.05;0.80;;;;;;;26.02;30.78;97346.47;5040444;28;20045;-44
2020/12/26 05:46:32;;;;;;;1.10;1.00;;;;;;;26.00;30.77;97345.69;5029133;28;20101;-43
2020/12/26 05:48:58;;;;;;;1.60;1.00;;;;;;;26.00;30.75;97350.09;5041699;28;20111;-44
2020/12/26 05:51:27;;;;;;;1.80;1.08;;;;;;;25.90;30.84;97333.91;5051896;28;20045;-43
2020/12/26 05:53:56;;;;;;;2.10;1.08;;;;;;;26.00;30.94;97348.31;5043297;28;20041;-42
2020/12/26 05:56:21;;;;;;;1.80;0.95;;;;;;;26.00;30.89;97345.69;5022984;28;20037;-46
2020/12/26 05:58:47;;;;;;;1.45;0.90;;;;;;;26.00;30.84;97340.44;5043413;28;20045;-44
2020/12/26 06:01:19;;;;;;;1.45;0.98;;;;;;;26.02;30.82;97343.84;5036551;28;20045;-43
2020/12/26 06:03:45;;;;;;;1.60;0.90;;;;;;;26.01;30.77;97343.91;5041960;28;20270;-38
2020/12/26 06:06:10;;;;;;;1.02;0.80;;;;;;;26.02;30.93;97340.38;5031606;28;20536;-41
2020/12/26 06:08:36;;;;;;;1.40;0.93;;;;;;;26.01;30.73;97342.13;5023446;28;20649;-43
2020/12/26 06:11:03;;;;;;;1.98;1.02;;;;;;;26.01;30.73;97339.50;5044744;28;20032;-39
2020/12/26 06:13:30;;;;;;;1.50;0.88;;;;;;;26.01;30.80;97341.28;5037185;28;20517;-43
2020/12/26 06:15:57;;;;;;;1.02;0.85;;;;;;;26.01;30.85;97342.13;5041059;28;20041;-42
2020/12/26 06:18:23;;;;;;;1.10;0.90;;;;;;;26.03;30.74;97353.44;5040259;28;20053;-41
2020/12/26 06:20:52;;;;;;;1.23;0.80;;;;;;;26.02;30.84;97350.88;5041900;28;20424;-41
2020/12/26 06:23:21;;;;;;;2.30;1.17;;;;;;;26.04;30.70;97355.13;5038125;28;20504;-40
2020/12/26 06:25:47;;;;;;;1.65;1.13;;;;;;;26.03;30.82;97356.06;5044653;28;20043;-40
2020/12/26 06:28:33;;;;;;;9.43;2.60;;;;;;;26.04;29.80;97362.16;5036681;28;20115;-42
2020/12/26 06:31:06;;;;;;;2.45;1.63;;;;;;;25.99;30.22;97359.75;5042683;28;20047;-42
2020/12/26 06:33:46;;;;;;;4.32;1.30;;;;;;;25.97;30.60;97361.56;5040835;28;20029;-43
2020/12/26 06:36:12;;;;;;;1.75;1.30;;;;;;;25.96;30.77;97363.34;5037661;28;20475;-41
2020/12/26 06:38:38;;;;;;;5.18;1.40;;;;;;;25.96;30.74;97357.25;5033589;28;20140;-41
2020/12/26 06:41:04;;;;;;;2.13;1.20;;;;;;;25.96;30.76;97354.63;5058140;28;20041;-43
2020/12/26 06:43:39;;;;;;;1.60;1.00;;;;;;;25.96;30.65;97365.97;5036713;28;20064;-47
2020/12/26 06:46:27;;;;;;;2.30;1.15;;;;;;;25.98;30.68;97365.91;5036191;28;20037;-43
2020/12/26 06:48:57;;;;;;;2.60;1.33;;;;;;;25.97;30.83;97372.06;5035656;28;21066;-41
2020/12/26 06:51:30;;;;;;;1.17;0.88;;;;;;;25.96;30.72;97365.97;5052969;28;20114;-42
2020/12/26 06:53:57;;;;;;;1.02;0.93;;;;;;;25.96;30.90;97365.13;5039951;28;20518;-43
2020/12/26 06:56:31;;;;;;;1.25;1.15;;;;;;;25.96;30.71;97365.13;5039493;28;20037;-42
2020/12/26 06:58:57;;;;;;;1.63;1.20;;;;;;;25.95;30.73;97358.16;5025872;28;20030;-42
2020/12/26 07:01:23;;;;;;;1.92;0.95;;;;;;;25.95;30.91;97358.16;5037693;28;20060;-45
2020/12/26 07:04:11;;;;;;;1.23;1.13;;;;;;;25.94;30.91;97361.72;5039185;28;20037;-42
2020/12/26 07:06:45;;;;;;;2.65;1.10;;;;;;;25.94;30.87;97357.31;5057931;28;20032;-43
2020/12/26 07:09:12;;;;;;;1.40;1.00;;;;;;;25.96;30.78;97365.13;5038475;28;20206;-42
2020/12/26 07:11:50;;;;;;;1.25;0.80;;;;;;;25.95;30.83;97372.16;5036922;28;20684;-42
2020/12/26 07:14:38;;;;;;;2.22;1.30;;;;;;;25.96;30.82;97379.13;5029449;28;20102;-43
2020/12/26 07:17:24;;;;;;;3.38;1.10;;;;;;;25.97;30.74;97379.94;5029535;28;20537;-43
2020/12/26 07:19:51;;;;;;;1.90;0.90;;;;;;;25.96;30.89;97373.00;5040393;28;20102;-39
2020/12/26 07:22:26;;;;;;;1.80;1.02;;;;;;;25.97;30.73;97385.19;5033354;28;20144;-41
2020/12/26 07:24:53;;;;;;;1.73;1.13;;;;;;;25.98;30.85;97383.44;5026614;28;20059;-42
2020/12/26 07:27:31;;;;;;;2.05;1.17;;;;;;;25.97;30.85;97390.44;5026464;28;20055;-43
2020/12/26 07:29:58;;;;;;;1.17;1.08;;;;;;;25.96;30.87;97375.63;5029356;28;20045;-43
2020/12/26 07:32:36;;;;;;;0.85;0.75;;;;;;;25.97;30.82;97382.56;5029296;28;20763;-42
2020/12/26 07:35:05;;;;;;;1.70;1.10;;;;;;;25.97;30.77;97377.31;5027564;28;20052;-41
2020/12/26 07:37:30;;;;;;;1.55;0.93;;;;;;;25.96;30.75;97378.25;5027624;28;20108;-41
2020/12/26 07:39:57;;;;;;;2.13;1.27;;;;;;;25.97;30.78;97377.31;5027695;28;20099;-44
2020/12/26 07:42:22;;;;;;;4.13;1.20;;;;;;;25.96;30.60;97371.25;5028353;28;20224;-46
2020/12/26 07:44:48;;;;;;;3.38;1.10;;;;;;;25.95;30.49;97372.16;5026213;28;21826;-42
2020/12/26 07:47:13;;;;;;;1.67;1.17;;;;;;;25.95;30.40;97379.19;5025829;28;20090;-42
2020/12/26 07:49:39;;;;;;;3.42;1.23;;;;;;;25.91;30.46;97374.97;5038078;28;20514;-43
2020/12/26 07:52:05;;;;;;;4.43;1.48;;;;;;;25.92;28.98;97376.69;5026612;28;20099;-43
2020/12/26 07:54:31;;;;;;;2.40;1.30;;;;;;;25.91;30.29;97374.97;5034663;28;20044;-41
2020/12/26 07:56:56;;;;;;;2.80;1.33;;;;;;;25.91;30.43;97367.09;5034873;28;20042;-45
2020/12/26 07:59:23;;;;;;;4.13;1.70;;;;;;;25.88;30.54;97354.97;5034449;28;20055;-48
2020/12/26 08:01:50;;;;;;;9.32;1.20;;;;;;;25.89;30.78;97358.47;5032077;28;20033;-44
2020/12/26 08:04:16;;;;;;;3.47;1.10;;;;;;;25.92;30.82;97358.31;5047753;28;20056;-48
2020/12/26 08:06:41;;;;;;;1.17;0.95;;;;;;;25.92;30.70;97361.78;5036400;28;20029;-40
2020/12/26 08:09:07;;;;;;;1.80;1.00;;;;;;;25.93;30.79;97357.41;5030671;28;20056;-40
2020/12/26 08:11:33;;;;;;;1.27;1.00;;;;;;;25.94;30.91;97361.72;5035303;28;20664;-45
2020/12/26 08:14:02;;;;;;;4.20;1.13;;;;;;;25.97;30.85;97358.94;5035768;28;20032;-43
2020/12/26 08:16:28;;;;;;;2.25;1.13;;;;;;;25.98;30.88;97363.28;5033444;28;20629;-44
2020/12/26 08:18:54;;;;;;;3.22;1.10;;;;;;;25.98;30.79;97354.56;5030440;28;20063;-45
2020/12/26 08:21:20;;;;;;;2.05;1.02;;;;;;;26.01;31.07;97357.06;5050439;28;20063;-40
2020/12/26 08:23:55;;;;;;;1.80;0.90;;;;;;;26.02;31.13;97351.72;5033365;28;20567;-45
2020/12/26 08:26:20;;;;;;;4.15;0.85;;;;;;;26.00;31.08;97348.31;5034649;28;20109;-44
2020/12/26 08:28:45;;;;;;;1.85;0.82;;;;;;;26.00;31.34;97356.19;5034874;28;20102;-42
2020/12/26 08:31:12;;;;;;;2.67;1.00;;;;;;;26.03;31.14;97357.81;5014045;28;20045;-42
2020/12/26 08:33:38;;;;;;;5.15;2.70;;;;;;;26.03;26.54;97355.19;5033221;28;20067;-37
2020/12/26 08:36:16;;;;;;;3.13;2.00;;;;;;;26.00;27.34;97361.44;5032482;28;20595;-43
2020/12/26 08:38:51;;;;;;;2.65;1.75;;;;;;;25.96;28.22;97354.63;5050639;28;20048;-43
2020/12/26 08:41:16;;;;;;;2.45;1.40;;;;;;;25.95;29.17;97350.28;5034256;28;20029;-46
2020/12/26 08:43:42;;;;;;;1.65;1.25;;;;;;;25.95;29.47;97360.78;5033784;28;20513;-42
2020/12/26 08:46:22;;;;;;;1.75;1.15;;;;;;;25.93;29.53;97355.59;5048182;28;20041;-43
2020/12/26 08:48:48;;;;;;;2.13;1.08;;;;;;;25.92;29.90;97363.56;5035039;28;20605;-39
2020/12/26 08:51:24;;;;;;;1.33;0.90;;;;;;;25.88;29.92;97361.97;5034701;28;20056;-43
2020/12/26 08:53:50;;;;;;;1.52;1.23;;;;;;;25.88;30.14;97361.97;5034454;28;20127;-42
2020/12/26 08:56:16;;;;;;;2.42;1.25;;;;;;;25.88;30.22;97367.22;5030847;28;20062;-43
2020/12/26 08:58:49;;;;;;;1.75;1.27;;;;;;;25.85;30.38;97362.97;5034583;28;20061;-43
2020/12/26 09:01:14;;;;;;;1.10;1.00;;;;;;;25.85;30.37;97373.47;5045724;28;20048;-42
2020/12/26 09:03:47;;;;;;;2.80;1.20;;;;;;;25.84;30.63;97374.41;5032848;28;20124;-41
2020/12/26 09:06:12;;;;;;;2.20;1.20;;;;;;;25.85;30.58;97378.72;5031125;28;20041;-44
2020/12/26 09:08:37;;;;;;;1.83;0.95;;;;;;;25.85;30.36;97377.88;5047334;28;20037;-44
2020/12/26 09:11:03;;;;;;;2.28;1.02;;;;;;;25.86;30.65;97384.84;5033473;28;20471;-45
2020/12/26 09:13:47;;;;;;;2.60;1.13;;;;;;;25.86;30.68;97384.84;5034285;28;20398;-43
2020/12/26 09:16:13;;;;;;;1.38;1.08;;;;;;;25.87;30.74;97381.28;5032415;28;20048;-42
2020/12/26 09:18:39;;;;;;;5.25;1.08;;;;;;;25.86;30.83;97385.72;5031825;28;20530;-44
2020/12/26 09:21:05;;;;;;;8.23;3.28;;;;;;;25.74;21.62;97381.81;5034686;28;20033;-42
2020/12/26 09:23:40;;;;;;;8.07;3.92;;;;;;;25.24;19.16;97383.88;5040105;28;20045;-42
2020/12/26 09:26:24;;;;;;;5.82;4.10;;;;;;;24.52;18.57;97397.16;5041296;28;20035;-43
2020/12/26 09:28:54;;;;;;;8.48;4.63;;;;;;;23.88;19.22;97409.06;5038256;28;20108;-38
2020/12/26 09:31:22;;;;;;;8.10;3.40;;;;;;;23.54;20.82;97399.75;5031808;28;20044;-45
2020/12/26 09:33:47;;;;;;;6.03;3.28;;;;;;;23.43;22.27;97402.75;5038564;28;20050;-42
2020/12/26 09:36:16;;;;;;;3.65;2.75;;;;;;;23.42;23.55;97404.53;5031370;28;20128;-45
2020/12/26 09:38:42;;;;;;;6.10;2.90;;;;;;;23.51;24.90;97400.72;5034438;28;20055;-43
2020/12/26 09:41:18;;;;;;;6.70;2.50;;;;;;;23.60;25.74;97403.03;5032367;28;20062;-42
2020/12/26 09:43:53;;;;;;;4.88;2.50;;;;;;;23.73;26.25;97411.31;5032412;28;20872;-44
2020/12/26 09:46:19;;;;;;;5.38;2.30;;;;;;;23.84;26.32;97412.69;5034390;28;20051;-44
2020/12/26 09:48:46;;;;;;;4.00;2.40;;;;;;;23.93;26.48;97407.13;5036588;28;20423;-42
2020/12/26 09:51:20;;;;;;;4.20;2.35;;;;;;;24.04;26.79;97413.75;5044449;28;20033;-43
2020/12/26 09:53:46;;;;;;;5.82;2.33;;;;;;;24.14;27.01;97412.56;5033860;28;20048;-48
2020/12/26 09:56:12;;;;;;;9.27;2.53;;;;;;;24.22;27.14;97410.47;5036981;28;20040;-40
2020/12/26 09:58:39;;;;;;;23.75;3.72;;;;;;;24.32;27.56;97410.16;5032150;28;20068;-46
2020/12/26 10:01:04;;;;;;;12.73;3.20;;;;;;;24.37;27.39;97406.44;5028086;28;20090;-47
2020/12/26 10:03:30;;;;;;;9.52;3.03;;;;;;;24.47;27.48;97408.72;5038938;28;20041;-42
2020/12/26 10:05:56;;;;;;;7.88;3.17;;;;;;;24.53;27.64;97393.59;5033960;28;20122;-43
2020/12/26 10:08:22;;;;;;;6.85;2.80;;;;;;;24.59;27.90;97386.44;5043353;28;20048;-42
2020/12/26 10:10:47;;;;;;;9.25;2.97;;;;;;;24.69;28.06;97392.16;5036712;28;20045;-43
2020/12/26 10:13:13;;;;;;;6.57;2.50;;;;;;;24.73;27.84;97392.00;5039904;28;20033;-41
2020/12/26 10:15:39;;;;;;;10.40;3.25;;;;;;;24.78;27.83;97397.91;5032844;28;20045;-45
2020/12/26 10:18:05;;;;;;;11.25;2.92;;;;;;;24.84;27.93;97396.00;5037302;28;20696;-44
2020/12/26 10:20:30;;;;;;;8.55;2.78;;;;;;;24.91;27.96;97398.28;5039351;28;20045;-40
2020/12/26 10:22:55;;;;;;;9.45;2.50;;;;;;;24.96;28.15;97394.63;5037094;28;20037;-43
2020/12/26 10:25:24;;;;;;;4.55;2.35;;;;;;;25.00;28.09;97394.47;5030902;28;20787;-43
2020/12/26 10:27:51;;;;;;;9.73;2.63;;;;;;;25.08;28.11;97395.91;5034176;28;20478;-43
2020/12/26 10:30:17;;;;;;;5.35;2.67;;;;;;;25.13;28.13;97397.44;5036247;28;20115;-39
2020/12/26 10:32:43;;;;;;;6.55;2.50;;;;;;;25.18;28.27;97392.84;5040269;28;20488;-46
2020/12/26 10:35:09;;;;;;;4.85;2.20;;;;;;;25.21;28.47;97394.53;5034485;28;20033;-45
2020/12/26 10:37:35;;;;;;;9.77;2.63;;;;;;;25.26;28.61;97395.19;5032803;28;20060;-46
2020/12/26 10:40:01;;;;;;;9.70;2.60;;;;;;;25.29;28.58;97391.56;5035113;28;20041;-41
2020/12/26 10:42:26;;;;;;;4.32;2.08;;;;;;;25.31;28.53;97390.59;5034161;28;20041;-43
2020/12/26 10:44:52;;;;;;;4.60;2.00;;;;;;;25.37;28.48;97388.63;5033934;28;20079;-41
2020/12/26 10:47:17;;;;;;;5.03;2.08;;;;;;;25.39;28.60;97381.53;5035436;28;20224;-39
2020/12/26 10:49:44;;;;;;;5.18;2.35;;;;;;;25.42;28.84;97379.66;5031889;28;20036;-47
2020/12/26 10:52:10;;;;;;;4.45;2.38;;;;;;;25.46;28.75;97382.97;5037144;28;20036;-43
2020/12/26 10:54:36;;;;;;;5.45;2.35;;;;;;;25.50;28.73;97383.69;5045074;28;20047;-38
2020/12/26 10:57:02;;;;;;;4.28;2.20;;;;;;;25.52;29.00;97377.47;5045784;28;20427;-44
2020/12/26 10:59:27;;;;;;;4.38;2.42;;;;;;;25.55;29.11;97369.47;5037658;28;20033;-43
2020/12/26 11:01:54;;;;;;;4.95;1.90;;;;;;;25.57;29.03;97364.19;5038134;28;20038;-42
2020/12/26 11:04:19;;;;;;;4.03;2.10;;;;;;;25.59;29.36;97369.38;5042811;28;20041;-42
2020/12/26 11:06:49;;;;;;;4.40;2.30;;;;;;;25.59;29.42;97357.09;5036592;28;20515;-43
2020/12/26 11:09:14;;;;;;;5.80;2.05;;;;;;;25.62;29.38;97361.38;5040189;28;20061;-45
2020/12/26 11:11:48;;;;;;;4.47;2.03;;;;;;;25.63;29.37;97363.91;5042008;28;20067;-43
2020/12/26 11:14:14;;;;;;;4.80;2.05;;;;;;;25.65;29.52;97350.72;5037446;28;20033;-44
2020/12/26 11:16:39;;;;;;;5.03;2.22;;;;;;;25.66;29.31;97352.44;5036492;28;20592;-43
2020/12/26 11:19:05;;;;;;;3.90;2.10;;;;;;;25.69;29.46;97341.81;5032529;28;20036;-45
2020/12/26 11:21:30;;;;;;;8.35;2.08;;;;;;;25.71;29.52;97334.72;5032424;28;20076;-42
2020/12/26 11:23:56;;;;;;;3.47;1.80;;;;;;;25.75;29.57;97332.81;5036965;28;20037;-42
2020/12/26 11:26:22;;;;;;;6.47;2.08;;;;;;;25.73;29.25;97325.00;5036616;28;20057;-40
2020/12/26 11:28:48;;;;;;;6.18;1.98;;;;;;;25.75;29.55;97324.94;5035699;28;20071;-46
2020/12/26 11:31:22;;;;;;;6.60;2.13;;;;;;;25.78;29.87;97330.06;5035570;28;20602;-43
2020/12/26 11:33:48;;;;;;;7.47;2.47;;;;;;;25.80;30.16;97325.56;5037024;28;20091;-44